createdAt,value
2019-05-23T00:01:50.997Z,9.10
2019-05-23T00:04:07.029Z,9.20
2019-05-23T00:06:12.865Z,9.10
2019-05-23T00:08:20.923Z,8.90
2019-05-23T00:10:32.287Z,9.00
2019-05-23T00:12:54.046Z,9.00
2019-05-23T00:15:01.475Z,9.00
2019-05-23T00:17:05.934Z,9.00
2019-05-23T00:19:10.898Z,9.00
2019-05-23T00:21:15.760Z,9.00
2019-05-23T00:23:19.874Z,9.00
2019-05-23T00:25:24.555Z,9.00
2019-05-23T00:27:30.326Z,9.00
2019-05-23T00:29:35.975Z,9.10
2019-05-23T00:31:52.450Z,9.10
2019-05-23T00:33:58.139Z,9.10
2019-05-23T00:36:03.446Z,9.10
2019-05-23T00:38:09.687Z,9.00
2019-05-23T00:40:15.756Z,8.90
2019-05-23T00:42:20.571Z,8.90
2019-05-23T00:44:25.283Z,8.90
2019-05-23T00:46:29.856Z,8.90
2019-05-23T00:48:34.544Z,8.70
2019-05-23T00:50:39.393Z,8.70
2019-05-23T00:52:43.988Z,8.60
2019-05-23T00:54:48.291Z,8.60
2019-05-23T00:56:52.950Z,8.60
2019-05-23T00:58:56.847Z,8.60
2019-05-23T01:01:02.937Z,8.50
2019-05-23T01:03:07.778Z,8.50
2019-05-23T01:05:12.991Z,8.50
2019-05-23T01:07:17.065Z,8.50
2019-05-23T01:09:21.075Z,8.60
2019-05-23T01:11:25.236Z,8.60
2019-05-23T01:13:29.795Z,8.60
2019-05-23T01:15:35.443Z,8.60
2019-05-23T01:17:39.684Z,8.50
2019-05-23T01:19:44.669Z,8.50
2019-05-23T01:22:02.742Z,8.40
2019-05-23T01:24:25.835Z,8.50
2019-05-23T01:26:30.152Z,8.40
2019-05-23T01:28:34.916Z,8.40
2019-05-23T01:30:43.373Z,8.30
2019-05-23T01:32:48.908Z,8.40
2019-05-23T01:34:53.170Z,8.30
2019-05-23T01:36:58.079Z,8.30
2019-05-23T01:39:02.579Z,8.40
2019-05-23T01:41:07.137Z,8.30
2019-05-23T01:43:12.008Z,8.30
2019-05-23T01:45:17.485Z,8.30
2019-05-23T01:47:21.540Z,8.30
2019-05-23T01:49:25.991Z,8.40
2019-05-23T01:51:30.367Z,8.30
2019-05-23T01:53:34.503Z,8.20
2019-05-23T01:55:38.796Z,8.20
2019-05-23T01:57:43.370Z,8.30
2019-05-23T01:59:47.603Z,8.30
2019-05-23T02:01:52.792Z,8.20
2019-05-23T02:03:57.362Z,8.20
2019-05-23T02:06:02.101Z,8.20
2019-05-23T02:08:08.527Z,8.20
2019-05-23T02:10:13.887Z,8.20
2019-05-23T02:12:18.334Z,8.20
2019-05-23T02:14:23.260Z,8.20
2019-05-23T02:16:27.406Z,8.30
2019-05-23T02:18:33.123Z,8.20
2019-05-23T02:20:37.993Z,8.20
2019-05-23T02:22:44.071Z,8.10
2019-05-23T02:24:48.083Z,8.10
2019-05-23T02:26:52.396Z,8.20
2019-05-23T02:28:56.475Z,8.20
2019-05-23T02:31:01.191Z,8.30
2019-05-23T02:33:05.397Z,8.20
2019-05-23T02:35:10.446Z,8.10
2019-05-23T02:37:32.120Z,8.20
2019-05-23T02:39:47.088Z,8.10
2019-05-23T02:42:02.428Z,8.10
2019-05-23T02:44:14.243Z,8.10
2019-05-23T02:46:24.643Z,8.10
2019-05-23T02:48:33.683Z,8.10
2019-05-23T02:50:46.164Z,8.10
2019-05-23T02:52:54.165Z,8.10
2019-05-23T02:54:58.715Z,8.10
2019-05-23T02:57:04.016Z,8.10
2019-05-23T02:59:19.082Z,8.10
2019-05-23T03:01:52.593Z,8.00
2019-05-23T03:03:59.505Z,8.00
2019-05-23T03:06:06.764Z,8.00
2019-05-23T03:08:12.681Z,7.90
2019-05-23T03:10:19.807Z,7.90
2019-05-23T03:12:25.809Z,7.90
2019-05-23T03:14:30.999Z,7.90
2019-05-23T03:16:35.827Z,8.00
2019-05-23T03:18:42.101Z,8.00
2019-05-23T03:20:47.617Z,8.00
2019-05-23T03:22:57.201Z,8.00
2019-05-23T03:25:04.337Z,8.00
2019-05-23T03:27:15.366Z,8.00
2019-05-23T03:29:19.824Z,8.00
2019-05-23T03:31:33.171Z,8.00
2019-05-23T03:33:38.131Z,8.00
2019-05-23T03:35:44.443Z,8.00
2019-05-23T03:37:49.808Z,8.10
2019-05-23T03:39:55.365Z,8.00
2019-05-23T03:41:59.840Z,8.10
2019-05-23T03:44:04.748Z,8.00
2019-05-23T03:46:10.917Z,8.10
2019-05-23T03:48:15.016Z,8.00
2019-05-23T03:50:22.910Z,8.00
2019-05-23T03:52:27.984Z,8.00
2019-05-23T03:54:32.756Z,8.00
2019-05-23T03:56:37.751Z,8.00
2019-05-23T03:58:43.903Z,8.00
2019-05-23T04:00:56.803Z,8.10
2019-05-23T04:03:02.340Z,8.10
2019-05-23T04:05:08.915Z,8.10
2019-05-23T04:07:13.709Z,8.10
2019-05-23T04:09:18.421Z,8.20
2019-05-23T04:11:23.287Z,8.20
2019-05-23T04:13:27.283Z,8.30
2019-05-23T04:15:33.066Z,8.30
2019-05-23T04:17:37.050Z,8.40
2019-05-23T04:19:41.447Z,8.40
2019-05-23T04:21:45.443Z,8.50
2019-05-23T04:23:49.329Z,8.50
2019-05-23T04:25:53.583Z,8.60
2019-05-23T04:27:57.892Z,8.60
2019-05-23T04:30:01.953Z,8.60
2019-05-23T04:32:09.157Z,8.70
2019-05-23T04:34:13.487Z,8.70
2019-05-23T04:36:17.923Z,8.80
2019-05-23T04:38:21.961Z,8.80
2019-05-23T04:40:25.814Z,8.80
2019-05-23T04:42:29.793Z,8.90
2019-05-23T04:44:33.774Z,8.90
2019-05-23T04:46:37.940Z,9.00
2019-05-23T04:48:41.836Z,9.00
2019-05-23T04:50:46.129Z,9.00
2019-05-23T04:52:50.585Z,9.00
2019-05-23T04:54:54.696Z,9.00
2019-05-23T04:56:58.882Z,9.10
2019-05-23T04:59:03.285Z,9.10
2019-05-23T05:01:08.982Z,9.10
2019-05-23T05:03:17.574Z,9.20
2019-05-23T05:05:20.468Z,9.20
2019-05-23T05:07:24.595Z,9.30
2019-05-23T05:09:32.193Z,9.30
2019-05-23T05:11:36.353Z,9.40
2019-05-23T05:13:41.257Z,9.40
2019-05-23T05:15:45.424Z,9.40
2019-05-23T05:17:49.404Z,9.50
2019-05-23T05:19:53.600Z,9.50
2019-05-23T05:21:57.563Z,9.50
2019-05-23T05:24:01.636Z,9.60
2019-05-23T05:26:09.296Z,9.60
2019-05-23T05:28:13.259Z,9.60
2019-05-23T05:30:17.176Z,9.70
2019-05-23T05:32:22.939Z,9.70
2019-05-23T05:34:27.169Z,9.80
2019-05-23T05:36:31.389Z,9.80
2019-05-23T05:38:36.316Z,9.90
2019-05-23T05:40:40.304Z,9.90
2019-05-23T05:42:45.815Z,10.00
2019-05-23T05:44:50.533Z,10.00
2019-05-23T05:46:54.512Z,10.10
2019-05-23T05:48:58.810Z,10.10
2019-05-23T05:51:04.001Z,10.20
2019-05-23T05:53:08.840Z,10.30
2019-05-23T05:55:13.196Z,10.30
2019-05-23T05:57:17.064Z,10.40
2019-05-23T05:59:20.940Z,10.40
2019-05-23T06:01:34.110Z,10.50
2019-05-23T06:03:31.110Z,10.60
2019-05-23T06:06:13.722Z,10.60
2019-05-23T06:08:20.660Z,10.70
2019-05-23T06:10:24.492Z,10.80
2019-05-23T06:12:28.677Z,10.90
2019-05-23T06:14:33.067Z,11.00
2019-05-23T06:16:37.436Z,11.00
2019-05-23T06:18:41.446Z,11.10
2019-05-23T06:20:47.319Z,11.20
2019-05-23T06:22:52.150Z,11.30
2019-05-23T06:24:58.148Z,11.30
2019-05-23T06:27:02.233Z,11.50
2019-05-23T06:29:06.124Z,11.50
2019-05-23T06:31:11.222Z,11.60
2019-05-23T06:33:23.196Z,11.70
2019-05-23T06:35:21.925Z,11.80
2019-05-23T06:37:26.576Z,11.90
2019-05-23T06:39:31.010Z,12.00
2019-05-23T06:41:35.239Z,12.10
2019-05-23T06:43:39.315Z,12.10
2019-05-23T06:45:43.271Z,12.20
2019-05-23T06:47:47.597Z,12.30
2019-05-23T06:49:51.429Z,12.40
2019-05-23T06:51:55.495Z,12.50
2019-05-23T06:53:59.710Z,12.50
2019-05-23T06:56:03.984Z,12.70
2019-05-23T06:58:08.414Z,12.70
2019-05-23T07:00:15.103Z,12.80
2019-05-23T07:02:19.473Z,12.90
2019-05-23T07:04:23.300Z,12.90
2019-05-23T07:06:28.654Z,13.10
2019-05-23T07:08:32.857Z,13.10
2019-05-23T07:10:37.630Z,13.10
2019-05-23T07:12:42.442Z,13.20
2019-05-23T07:14:46.716Z,13.30
2019-05-23T07:16:50.865Z,13.30
2019-05-23T07:18:54.979Z,13.50
2019-05-23T07:20:59.027Z,13.50
2019-05-23T07:23:03.450Z,13.50
2019-05-23T07:25:08.390Z,13.60
2019-05-23T07:27:13.483Z,13.60
2019-05-23T07:29:17.465Z,13.60
2019-05-23T07:31:22.186Z,13.70
2019-05-23T07:33:26.267Z,13.70
2019-05-23T07:35:30.375Z,13.70
2019-05-23T07:37:34.300Z,13.70
2019-05-23T07:39:38.544Z,13.80
2019-05-23T07:41:42.512Z,13.90
2019-05-23T07:43:46.511Z,14.00
2019-05-23T07:45:56.164Z,14.00
2019-05-23T07:48:00.353Z,14.00
2019-05-23T07:50:04.788Z,14.10
2019-05-23T07:52:08.866Z,14.10
2019-05-23T07:54:28.566Z,14.20
2019-05-23T07:56:34.843Z,14.20
2019-05-23T07:58:39.091Z,14.40
2019-05-23T08:00:49.386Z,14.30
2019-05-23T08:02:54.263Z,14.30
2019-05-23T08:04:58.755Z,14.30
2019-05-23T08:07:04.244Z,14.40
2019-05-23T08:09:09.559Z,14.60
2019-05-23T08:11:13.480Z,14.60
2019-05-23T08:13:17.642Z,14.60
2019-05-23T08:15:21.634Z,14.60
2019-05-23T08:17:25.508Z,14.60
2019-05-23T08:19:29.456Z,14.70
2019-05-23T08:21:33.473Z,14.60
2019-05-23T08:23:37.633Z,14.70
2019-05-23T08:25:41.480Z,14.80
2019-05-23T08:27:45.650Z,14.90
2019-05-23T08:29:50.028Z,14.90
2019-05-23T08:31:54.222Z,15.00
2019-05-23T08:33:59.488Z,15.00
2019-05-23T08:36:03.443Z,15.00
2019-05-23T08:38:07.874Z,15.00
2019-05-23T08:40:15.048Z,15.20
2019-05-23T08:42:20.314Z,15.20
2019-05-23T08:44:24.633Z,15.20
2019-05-23T08:46:30.015Z,15.10
2019-05-23T08:48:34.035Z,15.10
2019-05-23T08:50:38.816Z,15.10
2019-05-23T08:52:42.843Z,15.10
2019-05-23T08:54:47.919Z,15.20
2019-05-23T08:56:52.243Z,15.40
2019-05-23T08:58:56.619Z,15.40
2019-05-23T09:01:01.177Z,15.30
2019-05-23T09:03:05.491Z,15.40
2019-05-23T09:05:10.379Z,15.50
2019-05-23T09:07:14.478Z,15.40
2019-05-23T09:09:29.139Z,15.40
2019-05-23T09:11:24.650Z,15.60
2019-05-23T09:13:28.831Z,15.60
2019-05-23T09:15:33.099Z,15.60
2019-05-23T09:17:52.167Z,15.60
2019-05-23T09:19:44.555Z,15.60
2019-05-23T09:21:48.894Z,15.80
2019-05-23T09:23:52.993Z,15.90
2019-05-23T09:25:56.980Z,15.80
2019-05-23T09:28:01.154Z,15.80
2019-05-23T09:30:06.717Z,15.80
2019-05-23T09:32:10.790Z,15.80
2019-05-23T09:34:14.797Z,15.90
2019-05-23T09:36:19.206Z,16.00
2019-05-23T09:38:23.332Z,15.90
2019-05-23T09:40:27.652Z,16.10
2019-05-23T09:42:31.908Z,16.10
2019-05-23T09:44:35.802Z,16.20
2019-05-23T09:46:39.803Z,16.20
2019-05-23T09:48:44.269Z,16.30
2019-05-23T09:50:48.666Z,16.40
2019-05-23T09:52:52.858Z,16.40
2019-05-23T09:54:56.881Z,16.40
2019-05-23T09:57:01.027Z,16.50
2019-05-23T09:59:05.111Z,16.60
2019-05-23T10:01:09.413Z,16.70
2019-05-23T10:03:13.316Z,16.70
2019-05-23T10:05:17.528Z,16.90
2019-05-23T10:07:21.926Z,16.80
2019-05-23T10:09:25.800Z,16.80
2019-05-23T10:11:29.847Z,17.00
2019-05-23T10:13:38.907Z,17.10
2019-05-23T10:15:48.621Z,17.00
2019-05-23T10:17:52.588Z,17.00
2019-05-23T10:19:56.614Z,16.90
2019-05-23T10:22:00.520Z,17.10
2019-05-23T10:24:04.871Z,17.20
2019-05-23T10:26:09.993Z,17.10
2019-05-23T10:28:14.319Z,17.10
2019-05-23T10:30:19.931Z,17.20
2019-05-23T10:32:23.828Z,17.10
2019-05-23T10:34:28.335Z,17.30
2019-05-23T10:36:32.409Z,17.50
2019-05-23T10:38:36.836Z,17.50
2019-05-23T10:40:40.996Z,17.50
2019-05-23T10:42:45.164Z,17.30
2019-05-23T10:44:48.980Z,17.40
2019-05-23T10:46:52.972Z,17.40
2019-05-23T10:48:56.907Z,17.40
2019-05-23T10:51:01.175Z,17.50
2019-05-23T10:53:05.526Z,17.50
2019-05-23T10:55:09.683Z,17.50
2019-05-23T10:57:13.585Z,17.90
2019-05-23T10:59:17.583Z,17.80
2019-05-23T11:01:22.462Z,17.90
2019-05-23T11:03:26.816Z,17.80
2019-05-23T11:05:30.886Z,17.70
2019-05-23T11:07:35.169Z,17.70
2019-05-23T11:09:39.790Z,17.70
2019-05-23T11:11:44.587Z,17.90
2019-05-23T11:13:48.885Z,17.90
2019-05-23T11:15:53.206Z,17.90
2019-05-23T11:17:57.443Z,17.90
2019-05-23T11:20:01.783Z,18.00
2019-05-23T11:22:07.232Z,18.10
2019-05-23T11:24:12.376Z,18.30
2019-05-23T11:26:16.287Z,18.50
2019-05-23T11:28:20.248Z,18.60
2019-05-23T11:30:40.207Z,19.00
2019-05-23T11:32:44.373Z,19.70
2019-05-23T11:34:48.260Z,20.00
2019-05-23T11:36:52.187Z,20.20
2019-05-23T11:38:56.106Z,20.40
2019-05-23T11:40:59.988Z,20.60
2019-05-23T11:43:04.099Z,20.90
2019-05-23T11:45:08.600Z,20.90
2019-05-23T11:47:14.516Z,21.10
2019-05-23T11:49:18.907Z,20.90
2019-05-23T11:51:25.790Z,21.20
2019-05-23T11:53:31.807Z,21.00
2019-05-23T11:55:35.992Z,21.10
2019-05-23T11:57:39.942Z,21.20
2019-05-23T11:59:44.423Z,21.40
2019-05-23T12:02:06.109Z,21.40
2019-05-23T12:04:33.427Z,21.50
2019-05-23T12:06:55.728Z,21.30
2019-05-23T12:08:58.039Z,22.00
2019-05-23T12:11:02.191Z,22.50
2019-05-23T12:13:06.241Z,22.10
2019-05-23T12:15:15.828Z,22.70
2019-05-23T12:17:20.472Z,22.40
2019-05-23T12:19:24.907Z,22.60
2019-05-23T12:21:29.592Z,22.30
2019-05-23T12:23:34.064Z,22.30
2019-05-23T12:25:38.294Z,22.10
2019-05-23T12:27:42.528Z,22.00
2019-05-23T12:29:46.928Z,22.10
2019-05-23T12:31:50.906Z,22.70
2019-05-23T12:33:55.083Z,22.90
2019-05-23T12:35:59.039Z,23.10
2019-05-23T12:38:03.329Z,23.50
2019-05-23T12:40:10.410Z,23.20
2019-05-23T12:42:14.383Z,22.70
2019-05-23T12:44:18.753Z,22.40
2019-05-23T12:46:22.673Z,22.50
2019-05-23T12:48:37.260Z,22.60
2019-05-23T12:50:43.559Z,22.60
2019-05-23T12:52:48.838Z,22.90
2019-05-23T12:54:52.826Z,23.00
2019-05-23T12:56:56.849Z,23.10
2019-05-23T12:59:01.530Z,23.20
2019-05-23T13:01:07.729Z,22.50
2019-05-23T13:03:13.308Z,22.10
2019-05-23T13:05:17.509Z,22.10
2019-05-23T13:07:35.144Z,22.80
2019-05-23T13:09:28.542Z,22.70
2019-05-23T13:11:32.503Z,23.20
2019-05-23T13:13:36.601Z,22.80
2019-05-23T13:15:40.692Z,23.30
2019-05-23T13:17:44.775Z,22.80
2019-05-23T13:19:49.572Z,22.70
2019-05-23T13:21:53.723Z,22.70
2019-05-23T13:23:57.674Z,22.40
2019-05-23T13:26:01.622Z,22.50
2019-05-23T13:28:05.812Z,23.10
2019-05-23T13:30:10.363Z,23.00
2019-05-23T13:32:14.333Z,23.30
2019-05-23T13:34:18.308Z,23.10
2019-05-23T13:36:22.142Z,22.30
2019-05-23T13:38:26.260Z,22.20
2019-05-23T13:40:30.369Z,22.60
2019-05-23T13:42:34.657Z,22.50
2019-05-23T13:44:38.612Z,22.20
2019-05-23T13:46:42.999Z,22.40
2019-05-23T13:48:46.887Z,22.70
2019-05-23T13:50:50.951Z,22.40
2019-05-23T13:52:55.249Z,22.30
2019-05-23T13:54:59.067Z,21.90
2019-05-23T13:57:03.109Z,21.80
2019-05-23T13:59:07.240Z,21.80
2019-05-23T14:01:12.299Z,21.80
2019-05-23T14:03:16.977Z,21.70
2019-05-23T14:05:21.672Z,21.90
2019-05-23T14:07:26.901Z,21.70
2019-05-23T14:09:31.562Z,21.60
2019-05-23T14:11:35.537Z,21.60
2019-05-23T14:13:39.792Z,21.40
2019-05-23T14:15:46.414Z,21.10
2019-05-23T14:17:50.829Z,20.90
2019-05-23T14:19:54.850Z,20.90
2019-05-23T14:21:58.852Z,21.10
2019-05-23T14:24:02.887Z,21.40
2019-05-23T14:26:08.132Z,21.30
2019-05-23T14:28:12.376Z,21.10
2019-05-23T14:30:33.299Z,21.20
2019-05-23T14:32:45.721Z,21.20
2019-05-23T14:34:49.987Z,21.30
2019-05-23T14:37:16.031Z,21.50
2019-05-23T14:39:42.291Z,21.50
2019-05-23T14:41:55.760Z,21.60
2019-05-23T14:43:59.737Z,21.30
2019-05-23T14:46:06.285Z,21.10
2019-05-23T14:48:17.771Z,20.90
2019-05-23T14:50:39.696Z,20.80
2019-05-23T14:52:43.977Z,20.70
2019-05-23T14:54:51.688Z,20.90
2019-05-23T14:56:55.788Z,21.30
2019-05-23T14:58:59.756Z,21.80
2019-05-23T15:01:05.268Z,22.10
2019-05-23T15:03:09.447Z,22.40
2019-05-23T15:05:13.746Z,22.40
2019-05-23T15:07:17.761Z,22.30
2019-05-23T15:09:21.983Z,22.80
2019-05-23T15:11:26.151Z,23.10
2019-05-23T15:13:30.125Z,23.50
2019-05-23T15:15:34.202Z,23.80
2019-05-23T15:17:38.209Z,23.40
2019-05-23T15:19:45.330Z,23.00
2019-05-23T15:21:47.732Z,23.10
2019-05-23T15:23:51.668Z,23.10
2019-05-23T15:25:55.617Z,23.00
2019-05-23T15:27:59.567Z,23.30
2019-05-23T15:30:03.805Z,23.70
2019-05-23T15:32:07.816Z,23.30
2019-05-23T15:34:11.724Z,22.70
2019-05-23T15:36:15.633Z,22.20
2019-05-23T15:38:19.580Z,22.30
2019-05-23T15:40:23.876Z,22.50
2019-05-23T15:42:27.858Z,22.40
2019-05-23T15:44:32.011Z,22.40
2019-05-23T15:46:36.529Z,22.70
2019-05-23T15:48:40.746Z,22.60
2019-05-23T15:50:49.243Z,22.50
2019-05-23T15:53:02.167Z,22.80
2019-05-23T15:55:19.573Z,23.10
2019-05-23T15:57:32.007Z,23.30
2019-05-23T15:59:41.255Z,23.00
2019-05-23T16:01:58.890Z,22.50
2019-05-23T16:04:08.024Z,22.80
2019-05-23T16:06:14.770Z,23.40
2019-05-23T16:08:19.024Z,23.70
2019-05-23T16:10:22.839Z,23.70
2019-05-23T16:12:27.058Z,24.10
2019-05-23T16:14:31.151Z,24.60
2019-05-23T16:16:35.086Z,24.90
2019-05-23T16:18:39.324Z,24.90
2019-05-23T16:20:43.319Z,23.90
2019-05-23T16:22:47.224Z,23.80
2019-05-23T16:24:51.551Z,24.10
2019-05-23T16:26:55.558Z,24.00
2019-05-23T16:28:59.501Z,24.50
2019-05-23T16:31:03.420Z,24.90
2019-05-23T16:33:07.530Z,25.20
2019-05-23T16:35:11.860Z,24.90
2019-05-23T16:37:16.515Z,25.00
2019-05-23T16:39:20.619Z,23.60
2019-05-23T16:41:24.548Z,23.30
2019-05-23T16:43:28.816Z,23.50
2019-05-23T16:45:32.717Z,23.90
2019-05-23T16:47:36.604Z,23.70
2019-05-23T16:49:40.836Z,23.30
2019-05-23T16:51:44.995Z,23.30
2019-05-23T16:53:48.951Z,22.70
2019-05-23T16:55:58.992Z,22.70
2019-05-23T16:58:08.895Z,22.90
2019-05-23T17:00:48.839Z,23.50
2019-05-23T17:03:14.865Z,23.90
2019-05-23T17:05:36.894Z,23.60
2019-05-23T17:08:04.778Z,23.80
2019-05-23T17:10:19.798Z,23.70
2019-05-23T17:12:34.179Z,24.00
2019-05-23T17:14:43.464Z,23.80
2019-05-23T17:16:53.244Z,23.60
2019-05-23T17:19:02.847Z,23.50
2019-05-23T17:21:19.789Z,23.50
2019-05-23T17:23:35.831Z,23.40
2019-05-23T17:26:10.801Z,23.60
2019-05-23T17:28:24.539Z,23.00
2019-05-23T17:30:59.933Z,23.00
2019-05-23T17:33:05.473Z,23.30
2019-05-23T17:35:11.332Z,23.60
2019-05-23T17:37:16.408Z,24.20
2019-05-23T17:39:20.782Z,24.10
2019-05-23T17:41:24.801Z,23.80
2019-05-23T17:43:28.775Z,23.80
2019-05-23T17:45:32.993Z,23.50
2019-05-23T17:47:37.003Z,23.10
2019-05-23T17:49:40.839Z,22.90
2019-05-23T17:51:44.876Z,23.00
2019-05-23T17:53:48.697Z,22.70
2019-05-23T17:55:53.259Z,23.00
2019-05-23T17:57:57.490Z,23.00
2019-05-23T18:00:01.553Z,22.80
2019-05-23T18:02:06.119Z,22.80
2019-05-23T18:04:10.135Z,22.90
2019-05-23T18:06:14.164Z,22.90
2019-05-23T18:08:18.809Z,22.90
2019-05-23T18:10:22.962Z,23.00
2019-05-23T18:12:27.326Z,22.80
2019-05-23T18:14:31.618Z,22.70
2019-05-23T18:16:36.247Z,22.50
2019-05-23T18:18:40.448Z,22.40
2019-05-23T18:20:44.677Z,22.10
2019-05-23T18:22:48.512Z,22.10
2019-05-23T18:24:52.710Z,22.00
2019-05-23T18:26:56.754Z,22.00
2019-05-23T18:29:00.669Z,21.90
2019-05-23T18:31:11.052Z,21.80
2019-05-23T18:33:16.111Z,21.90
2019-05-23T18:35:20.516Z,21.70
2019-05-23T18:37:24.564Z,21.80
2019-05-23T18:39:30.031Z,21.60
2019-05-23T18:41:34.167Z,21.50
2019-05-23T18:43:39.167Z,21.30
2019-05-23T18:45:44.032Z,21.30
2019-05-23T18:47:47.867Z,21.20
2019-05-23T18:49:52.131Z,21.20
2019-05-23T18:51:56.240Z,21.10
2019-05-23T18:54:00.580Z,21.10
2019-05-23T18:56:05.013Z,21.30
2019-05-23T18:58:09.104Z,21.30
2019-05-23T19:00:14.034Z,21.30
2019-05-23T19:02:18.136Z,21.30
2019-05-23T19:04:22.136Z,21.20
2019-05-23T19:06:26.222Z,21.00
2019-05-23T19:08:30.746Z,20.90
2019-05-23T19:10:35.596Z,20.80
2019-05-23T19:12:41.583Z,20.70
2019-05-23T19:14:45.659Z,20.50
2019-05-23T19:16:50.092Z,20.50
2019-05-23T19:18:54.236Z,20.30
2019-05-23T19:20:59.243Z,20.20
2019-05-23T19:23:03.714Z,20.00
2019-05-23T19:25:07.969Z,19.80
2019-05-23T19:27:14.356Z,19.80
2019-05-23T19:29:18.664Z,19.50
2019-05-23T19:31:22.551Z,19.40
2019-05-23T19:33:26.371Z,19.40
2019-05-23T19:35:30.451Z,19.30
2019-05-23T19:37:34.848Z,19.20
2019-05-23T19:39:39.240Z,19.10
2019-05-23T19:41:43.277Z,19.10
2019-05-23T19:43:48.345Z,18.90
2019-05-23T19:45:52.380Z,18.80
2019-05-23T19:47:56.684Z,18.70
2019-05-23T19:50:00.678Z,18.60
2019-05-23T19:52:05.636Z,18.70
2019-05-23T19:54:09.623Z,18.60
2019-05-23T19:56:13.835Z,18.50
2019-05-23T19:58:18.970Z,18.40
2019-05-23T20:00:23.570Z,18.50
2019-05-23T20:02:54.901Z,18.40
2019-05-23T20:05:03.950Z,18.40
2019-05-23T20:07:08.900Z,18.30
2019-05-23T20:09:16.132Z,18.30
2019-05-23T20:11:20.267Z,18.10
2019-05-23T20:13:24.785Z,18.10
2019-05-23T20:15:29.691Z,18.10
2019-05-23T20:17:33.652Z,18.00
2019-05-23T20:19:37.596Z,17.90
2019-05-23T20:21:41.709Z,17.80
2019-05-23T20:23:45.680Z,17.60
2019-05-23T20:25:49.867Z,17.50
2019-05-23T20:27:54.124Z,17.60
2019-05-23T20:29:58.140Z,17.50
2019-05-23T20:32:02.495Z,17.50
2019-05-23T20:34:07.628Z,17.50
2019-05-23T20:36:15.165Z,17.40
2019-05-23T20:38:20.357Z,17.40
2019-05-23T20:40:24.449Z,17.40
2019-05-23T20:42:28.377Z,17.20
2019-05-23T20:44:32.347Z,17.10
2019-05-23T20:46:37.073Z,17.10
2019-05-23T20:48:41.348Z,17.10
2019-05-23T20:50:45.657Z,17.10
2019-05-23T20:52:49.604Z,17.10
2019-05-23T20:54:53.524Z,17.10
2019-05-23T20:56:57.448Z,16.90
2019-05-23T20:59:01.298Z,16.90
2019-05-23T21:01:18.497Z,17.00
2019-05-23T21:03:23.596Z,17.00
2019-05-23T21:05:27.751Z,17.00
2019-05-23T21:07:31.685Z,16.80
2019-05-23T21:09:35.718Z,16.70
2019-05-23T21:11:39.732Z,16.80
2019-05-23T21:13:43.570Z,16.80
2019-05-23T21:15:47.993Z,16.70
2019-05-23T21:17:51.991Z,16.80
2019-05-23T21:19:55.905Z,16.70
2019-05-23T21:22:00.236Z,16.60
2019-05-23T21:24:04.433Z,16.70
2019-05-23T21:26:08.756Z,16.70
2019-05-23T21:28:12.739Z,16.60
2019-05-23T21:30:16.868Z,16.60
2019-05-23T21:32:20.861Z,16.40
2019-05-23T21:34:24.725Z,16.30
2019-05-23T21:36:28.636Z,16.50
2019-05-23T21:38:32.673Z,16.40
2019-05-23T21:40:42.355Z,16.20
2019-05-23T21:42:48.009Z,16.30
2019-05-23T21:44:52.065Z,16.30
2019-05-23T21:46:55.967Z,16.20
2019-05-23T21:48:59.830Z,16.30
2019-05-23T21:51:03.801Z,16.10
2019-05-23T21:53:08.503Z,16.00
2019-05-23T21:55:16.067Z,15.90
2019-05-23T21:57:20.071Z,15.80
2019-05-23T21:59:24.014Z,15.90
2019-05-23T22:01:45.627Z,15.90
2019-05-23T22:04:07.423Z,15.60
2019-05-23T22:06:13.942Z,15.60
2019-05-23T22:08:18.247Z,15.50
2019-05-23T22:10:22.397Z,15.50
2019-05-23T22:12:26.384Z,15.60
2019-05-23T22:14:30.427Z,15.50
2019-05-23T22:16:34.688Z,15.60
2019-05-23T22:18:38.843Z,15.60
2019-05-23T22:20:43.078Z,15.60
2019-05-23T22:22:47.139Z,15.10
2019-05-23T22:24:50.983Z,14.50
2019-05-23T22:26:54.956Z,14.60
2019-05-23T22:28:58.967Z,14.70
2019-05-23T22:31:02.947Z,14.90
2019-05-23T22:33:08.063Z,15.20
2019-05-23T22:35:15.872Z,15.30
2019-05-23T22:37:24.815Z,15.50
2019-05-23T22:39:28.739Z,15.50
2019-05-23T22:41:32.687Z,15.30
2019-05-23T22:43:36.776Z,15.40
2019-05-23T22:45:40.986Z,15.40
2019-05-23T22:47:45.278Z,15.50
2019-05-23T22:49:49.331Z,15.80
2019-05-23T22:51:53.220Z,15.70
2019-05-23T22:53:57.262Z,15.60
2019-05-23T22:56:01.249Z,15.50
2019-05-23T22:58:05.894Z,15.50
2019-05-23T23:00:11.601Z,15.70
2019-05-23T23:02:17.291Z,15.70
2019-05-23T23:04:21.376Z,15.70
2019-05-23T23:06:25.684Z,15.80
2019-05-23T23:08:31.039Z,15.90
2019-05-23T23:10:34.994Z,15.70
2019-05-23T23:12:38.847Z,15.50
2019-05-23T23:14:43.077Z,15.60
2019-05-23T23:16:47.353Z,15.60
2019-05-23T23:18:51.340Z,15.60
2019-05-23T23:20:55.368Z,15.60
2019-05-23T23:22:59.272Z,15.50
2019-05-23T23:25:03.260Z,15.50
2019-05-23T23:27:07.283Z,15.20
2019-05-23T23:29:11.380Z,15.30
2019-05-23T23:31:15.464Z,15.30
2019-05-23T23:33:19.604Z,15.20
2019-05-23T23:35:23.621Z,15.00
2019-05-23T23:37:27.441Z,14.80
2019-05-23T23:39:31.346Z,14.90
2019-05-23T23:41:35.213Z,14.80
2019-05-23T23:43:39.047Z,14.90
2019-05-23T23:46:01.106Z,15.00
2019-05-23T23:48:23.184Z,15.20
2019-05-23T23:50:45.337Z,15.20
2019-05-23T23:53:07.367Z,15.10
2019-05-23T23:55:29.415Z,14.70
2019-05-23T23:57:51.361Z,14.90
